Time;durP1;ratioP1;P1;durP2;ratioP2;P2;SDS_P1;SDS_P2;PMS_P1;PMS_P2;Temp;Humidity;BMP_temperature;BMP_pressure;BME280_temperature;BME280_humidity;BME280_pressure;Samples;Min_cycle;Max_cycle;Signal;HPM_P1;HPM_P2
2023/01/29 00:02:02;;;;;;;;;;;3.20;99.90;;;;;;5115646;27;19924;-93
2023/01/29 00:04:28;;;;;;;;;;;3.20;99.90;;;;;;5125165;27;19924;-92
2023/01/29 00:06:53;;;;;;;;;;;3.20;99.90;;;;;;5127701;27;19998;-93
2023/01/29 00:09:19;;;;;;;;;;;3.20;99.90;;;;;;5127807;27;20337;-95
2023/01/29 00:11:44;;;;;;;;;;;3.20;99.90;;;;;;5116318;27;20880;-93
2023/01/29 00:14:10;;;;;;;;;;;3.30;99.90;;;;;;5107627;27;19946;-92
2023/01/29 00:16:35;;;;;;;;;;;3.20;99.90;;;;;;5120926;27;19927;-93
2023/01/29 00:19:02;;;;;;;;;;;4.30;99.90;;;;;;5124601;27;20006;-92
2023/01/29 00:21:29;;;;;;;;;;;3.20;99.90;;;;;;5125448;27;19957;-92
2023/01/29 00:23:55;;;;;;;;;;;3.20;99.90;;;;;;5125631;27;19934;-93
2023/01/29 00:26:21;;;;;;;;;;;3.20;99.90;;;;;;5100700;28;19924;-94
2023/01/29 00:28:47;;;;;;;;;;;3.20;99.90;;;;;;5125169;27;20010;-93
2023/01/29 00:31:13;;;;;;;;;;;3.40;99.90;;;;;;5127891;27;19924;-94
2023/01/29 00:33:39;;;;;;;;;;;3.30;99.90;;;;;;5142780;27;20277;-92
2023/01/29 00:36:06;;;;;;;;;;;3.20;99.90;;;;;;5139557;27;19934;-94
2023/01/29 00:38:32;;;;;;;;;;;3.20;99.90;;;;;;5140640;27;19984;-91
2023/01/29 00:46:32;;;;;;;;;;;3.20;99.90;;;;;;5134085;27;20022;-93
2023/01/29 00:48:57;;;;;;;;;;;3.20;99.90;;;;;;5123956;27;20003;-93
2023/01/29 00:51:23;;;;;;;;;;;3.40;99.90;;;;;;5115945;27;19940;-93
2023/01/29 00:53:49;;;;;;;;;;;3.30;99.90;;;;;;5142657;27;19991;-93
2023/01/29 00:56:14;;;;;;;;;;;3.20;99.90;;;;;;5112471;28;19924;-92
2023/01/29 00:58:40;;;;;;;;;;;3.20;99.90;;;;;;5128175;27;19952;-92
2023/01/29 01:01:05;;;;;;;;;;;3.20;99.90;;;;;;5151502;27;20360;-92
2023/01/29 01:03:33;;;;;;;;;;;3.20;99.90;;;;;;5132447;27;19970;-92
2023/01/29 01:06:05;;;;;;;;;;;3.20;99.90;;;;;;5108499;27;20139;-93
2023/01/29 01:11:15;;;;;;;;;;;3.20;99.90;;;;;;5119941;27;19924;-93
2023/01/29 01:13:41;;;;;;;;;;;3.60;99.90;;;;;;5121564;27;19946;-94
2023/01/29 01:16:11;;;;;;;;;;;3.20;99.90;;;;;;5098778;27;20476;-93
2023/01/29 01:18:37;;;;;;;;;;;3.20;99.90;;;;;;5147576;27;19923;-92
2023/01/29 01:21:03;;;;;;;;;;;3.20;99.90;;;;;;5141708;27;19930;-93
2023/01/29 01:23:28;;;;;;;;;;;3.20;99.90;;;;;;5112055;27;19923;-95
2023/01/29 01:25:54;;;;;;;;;;;3.20;99.90;;;;;;5125578;27;20036;-94
2023/01/29 01:28:20;;;;;;;;;;;3.20;99.90;;;;;;5143305;27;19923;-94
2023/01/29 01:30:45;;;;;;;;;;;3.20;99.90;;;;;;5125620;27;19942;-93
2023/01/29 01:33:11;;;;;;;;;;;3.20;99.90;;;;;;5132179;27;20278;-93
2023/01/29 01:35:38;;;;;;;;;;;3.30;99.90;;;;;;5149660;27;19923;-94
2023/01/29 01:38:04;;;;;;;;;;;3.30;99.90;;;;;;5129211;27;19979;-94
2023/01/29 01:40:29;;;;;;;;;;;3.30;99.90;;;;;;5134864;27;20013;-94
2023/01/29 01:42:56;;;;;;;;;;;3.30;99.90;;;;;;5107091;27;20085;-93
2023/01/29 01:45:34;;;;;;;;;;;3.30;99.90;;;;;;5133559;27;20303;-93
2023/01/29 01:48:03;;;;;;;;;;;3.20;99.90;;;;;;5129850;27;19971;-93
2023/01/29 01:50:29;;;;;;;;;;;3.30;99.90;;;;;;5123477;27;19935;-94
2023/01/29 01:52:56;;;;;;;;;;;3.30;99.90;;;;;;5122474;27;19924;-94
2023/01/29 01:55:24;;;;;;;;;;;3.30;99.90;;;;;;5125760;27;19924;-95
2023/01/29 01:57:53;;;;;;;;;;;3.30;99.90;;;;;;5139356;27;19939;-94
2023/01/29 02:00:20;;;;;;;;;;;3.30;99.90;;;;;;5145226;27;19973;-93
2023/01/29 02:11:06;;;;;;;;;;;3.30;99.90;;;;;;5140063;28;19927;-93
2023/01/29 02:13:31;;;;;;;;;;;3.30;99.90;;;;;;5121152;28;19931;-93
2023/01/29 02:15:57;;;;;;;;;;;3.40;99.90;;;;;;5105860;28;19935;-94
2023/01/29 02:18:22;;;;;;;;;;;3.40;99.90;;;;;;5140046;27;19977;-93
2023/01/29 02:21:02;;;;;;;;;;;3.40;99.90;;;;;;5127967;27;19927;-94
2023/01/29 02:23:35;;;;;;;;;;;3.30;99.90;;;;;;5143792;27;19927;-93
2023/01/29 02:26:10;;;;;;;;;;;3.30;99.90;;;;;;5150385;27;20390;-92
2023/01/29 02:28:35;;;;;;;;;;;3.40;99.90;;;;;;5129141;27;19949;-93
2023/01/29 02:31:01;;;;;;;;;;;3.30;99.90;;;;;;5156576;27;19923;-93
2023/01/29 02:33:32;;;;;;;;;;;3.40;99.90;;;;;;5161993;27;19934;-93
2023/01/29 02:36:05;;;;;;;;;;;3.40;99.90;;;;;;5163495;27;19930;-93
2023/01/29 02:38:41;;;;;;;;;;;3.30;99.90;;;;;;5126707;27;19959;-94
2023/01/29 02:41:13;;;;;;;;;;;3.30;99.90;;;;;;5126469;27;19930;-94
2023/01/29 02:43:42;;;;;;;;;;;3.40;99.90;;;;;;5133162;27;19923;-95
2023/01/29 02:46:08;;;;;;;;;;;3.30;99.90;;;;;;5149362;27;19974;-92
2023/01/29 02:48:38;;;;;;;;;;;3.40;99.90;;;;;;5154396;27;19923;-93
2023/01/29 02:51:07;;;;;;;;;;;3.40;99.90;;;;;;5143924;27;19924;-94
2023/01/29 02:53:43;;;;;;;;;;;3.30;99.90;;;;;;5125436;27;19962;-93
2023/01/29 02:56:11;;;;;;;;;;;3.30;99.90;;;;;;5155252;27;19948;-94
2023/01/29 02:58:41;;;;;;;;;;;3.40;99.90;;;;;;5136455;27;19923;-93
2023/01/29 03:01:11;;;;;;;;;;;3.40;99.90;;;;;;5149132;27;19923;-94
2023/01/29 03:03:39;;;;;;;;;;;3.40;99.90;;;;;;5132264;27;19962;-94
2023/01/29 03:06:17;;;;;;;;;;;3.40;99.90;;;;;;5153781;27;19996;-93
2023/01/29 03:08:48;;;;;;;;;;;3.40;99.90;;;;;;5120503;27;20030;-93
2023/01/29 03:11:15;;;;;;;;;;;2.80;99.90;;;;;;5136179;27;19922;-93
2023/01/29 03:13:44;;;;;;;;;;;3.40;99.90;;;;;;5141854;27;20771;-93
2023/01/29 03:16:19;;;;;;;;;;;3.40;99.90;;;;;;5143010;27;19931;-92
2023/01/29 03:18:55;;;;;;;;;;;3.40;99.90;;;;;;5144233;27;19930;-94
2023/01/29 03:32:29;;;;;;;;;;;3.40;99.90;;;;;;5149320;27;20595;-94
2023/01/29 03:34:57;;;;;;;;;;;3.40;99.90;;;;;;5131782;27;19974;-93
2023/01/29 03:37:25;;;;;;;;;;;3.40;99.90;;;;;;5135293;27;19923;-95
2023/01/29 03:39:51;;;;;;;;;;;3.40;99.90;;;;;;5151043;27;19970;-94
2023/01/29 03:42:23;;;;;;;;;;;3.80;99.90;;;;;;5131903;27;19923;-94
2023/01/29 03:44:55;;;;;;;;;;;3.40;99.90;;;;;;5128728;27;19924;-95
2023/01/29 03:47:23;;;;;;;;;;;3.40;99.90;;;;;;5118665;28;19931;-93
2023/01/29 03:49:52;;;;;;;;;;;3.40;99.90;;;;;;5151997;27;19923;-94
2023/01/29 03:52:17;;;;;;;;;;;3.40;99.90;;;;;;5123428;27;19934;-94
2023/01/29 03:54:43;;;;;;;;;;;3.40;99.90;;;;;;5145350;27;19923;-95
2023/01/29 03:57:44;;;;;;;;;;;3.40;99.90;;;;;;5142553;27;19935;-94
2023/01/29 04:00:15;;;;;;;;;;;3.40;99.90;;;;;;5061896;28;19988;-93
2023/01/29 04:02:51;;;;;;;;;;;3.40;99.90;;;;;;5127999;27;20033;-93
2023/01/29 04:05:19;;;;;;;;;;;3.40;99.90;;;;;;5134592;27;19980;-92
2023/01/29 04:07:45;;;;;;;;;;;3.40;99.90;;;;;;5141762;27;19923;-94
2023/01/29 04:10:21;;;;;;;;;;;3.40;99.90;;;;;;5110955;27;19930;-93
2023/01/29 04:12:51;;;;;;;;;;;3.40;99.90;;;;;;5144240;27;20044;-93
2023/01/29 04:15:17;;;;;;;;;;;3.50;99.90;;;;;;5124996;27;19927;-93
2023/01/29 04:17:48;;;;;;;;;;;3.60;99.90;;;;;;5127490;27;19945;-94
2023/01/29 04:20:14;;;;;;;;;;;3.40;99.90;;;;;;5157014;27;19978;-93
2023/01/29 04:22:43;;;;;;;;;;;3.40;99.90;;;;;;5108060;28;19947;-93
2023/01/29 04:25:14;;;;;;;;;;;3.40;99.90;;;;;;5144849;27;19982;-94
2023/01/29 04:27:40;;;;;;;;;;;3.50;99.90;;;;;;5133389;27;19923;-95
2023/01/29 04:30:21;;;;;;;;;;;3.50;99.90;;;;;;5133673;27;19967;-94
2023/01/29 04:32:53;;;;;;;;;;;3.50;99.90;;;;;;5128110;27;20360;-92
2023/01/29 04:35:28;;;;;;;;;;;3.50;99.90;;;;;;5146224;27;19948;-94
2023/01/29 04:38:05;;;;;;;;;;;3.40;99.90;;;;;;5113822;27;20302;-93
2023/01/29 04:40:31;;;;;;;;;;;3.40;99.90;;;;;;5128423;27;19997;-92
2023/01/29 04:42:56;;;;;;;;;;;3.40;99.90;;;;;;5118916;27;19923;-92
2023/01/29 04:45:45;;;;;;;;;;;3.40;99.90;;;;;;5114004;27;19984;-92
2023/01/29 04:48:19;;;;;;;;;;;3.40;99.90;;;;;;5141198;27;19944;-93
2023/01/29 04:50:49;;;;;;;;;;;3.40;99.90;;;;;;5124562;27;20363;-94
2023/01/29 04:53:18;;;;;;;;;;;3.40;99.90;;;;;;5123756;27;19930;-93
2023/01/29 04:55:48;;;;;;;;;;;3.40;99.90;;;;;;5130125;27;19923;-93
2023/01/29 04:58:40;;;;;;;;;;;3.40;99.90;;;;;;5124664;27;19931;-94
2023/01/29 05:01:07;;;;;;;;;;;3.40;99.90;;;;;;5139132;27;19955;-93
2023/01/29 05:03:34;;;;;;;;;;;3.40;99.90;;;;;;5128272;27;19924;-93
2023/01/29 05:06:00;;;;;;;;;;;3.40;99.90;;;;;;5130657;27;19923;-94
2023/01/29 05:08:27;;;;;;;;;;;3.80;99.90;;;;;;5140725;27;19986;-94
2023/01/29 05:10:54;;;;;;;;;;;3.40;99.90;;;;;;5137425;27;19983;-93
2023/01/29 05:13:21;;;;;;;;;;;3.40;99.90;;;;;;5145326;27;19966;-92
2023/01/29 05:15:49;;;;;;;;;;;3.40;99.90;;;;;;5148906;27;19966;-92
2023/01/29 05:18:14;;;;;;;;;;;3.40;99.90;;;;;;5148738;27;19950;-92
2023/01/29 05:20:42;;;;;;;;;;;3.30;99.90;;;;;;5127370;27;19923;-94
2023/01/29 05:23:17;;;;;;;;;;;5.40;99.90;;;;;;5140046;27;19923;-92
2023/01/29 05:25:44;;;;;;;;;;;3.30;99.90;;;;;;5128527;27;19924;-93
2023/01/29 05:28:16;;;;;;;;;;;3.30;99.90;;;;;;5120775;27;20034;-94
2023/01/29 05:30:46;;;;;;;;;;;3.30;99.90;;;;;;5106928;27;19987;-95
2023/01/29 05:33:14;;;;;;;;;;;3.90;99.90;;;;;;5123599;27;19931;-92
2023/01/29 05:35:39;;;;;;;;;;;3.30;99.90;;;;;;5125596;27;20356;-94
2023/01/29 05:38:05;;;;;;;;;;;3.30;99.90;;;;;;5140674;27;19928;-92
2023/01/29 05:40:30;;;;;;;;;;;3.30;99.90;;;;;;5106407;27;19966;-94
2023/01/29 05:42:56;;;;;;;;;;;3.60;99.90;;;;;;5138753;27;19990;-94
2023/01/29 05:45:22;;;;;;;;;;;3.30;99.90;;;;;;5112916;28;19989;-93
2023/01/29 05:47:47;;;;;;;;;;;3.30;99.90;;;;;;5129621;27;19930;-93
2023/01/29 05:50:13;;;;;;;;;;;3.20;99.90;;;;;;5149893;27;19994;-92
2023/01/29 05:52:39;;;;;;;;;;;3.20;99.90;;;;;;5142056;27;20015;-92
2023/01/29 05:55:05;;;;;;;;;;;3.20;99.90;;;;;;5145372;27;19948;-93
2023/01/29 05:57:31;;;;;;;;;;;3.20;99.90;;;;;;5146170;27;19923;-93
2023/01/29 05:59:56;;;;;;;;;;;3.20;99.90;;;;;;5118642;28;20014;-92
2023/01/29 06:02:22;;;;;;;;;;;3.20;99.90;;;;;;5139870;27;19930;-92
2023/01/29 06:04:49;;;;;;;;;;;3.20;99.90;;;;;;5113425;27;19931;-92
2023/01/29 06:07:15;;;;;;;;;;;3.20;99.90;;;;;;5138576;27;20343;-92
2023/01/29 06:09:40;;;;;;;;;;;3.20;99.90;;;;;;5137321;27;19946;-92
2023/01/29 06:12:06;;;;;;;;;;;3.20;99.90;;;;;;5106438;28;19927;-93
2023/01/29 06:14:32;;;;;;;;;;;3.20;99.90;;;;;;5116126;28;19924;-94
2023/01/29 06:16:58;;;;;;;;;;;3.20;99.90;;;;;;5104303;28;19923;-92
2023/01/29 06:19:23;;;;;;;;;;;3.30;99.90;;;;;;5135864;28;19930;-92
2023/01/29 06:21:49;;;;;;;;;;;3.30;99.90;;;;;;5107890;27;19972;-93
2023/01/29 06:24:14;;;;;;;;;;;3.30;99.90;;;;;;5125327;28;19924;-91
2023/01/29 06:26:40;;;;;;;;;;;3.30;99.90;;;;;;5123401;28;19931;-92
2023/01/29 06:29:06;;;;;;;;;;;3.30;99.90;;;;;;5126983;28;19966;-91
2023/01/29 06:31:31;;;;;;;;;;;3.30;99.90;;;;;;5136762;27;19924;-94
2023/01/29 06:33:57;;;;;;;;;;;3.30;99.90;;;;;;5134004;28;19924;-92
2023/01/29 06:36:23;;;;;;;;;;;3.30;99.90;;;;;;5137089;27;19942;-92
2023/01/29 06:38:48;;;;;;;;;;;3.40;99.90;;;;;;5126189;28;19923;-91
2023/01/29 06:41:16;;;;;;;;;;;3.30;99.90;;;;;;5106419;28;20040;-90
2023/01/29 06:43:44;;;;;;;;;;;3.40;99.90;;;;;;5137835;27;19923;-93
2023/01/29 06:46:10;;;;;;;;;;;3.40;99.90;;;;;;5126061;27;19927;-92
2023/01/29 06:48:36;;;;;;;;;;;3.40;99.90;;;;;;5131545;27;19978;-93
2023/01/29 06:51:05;;;;;;;;;;;3.40;99.90;;;;;;5111205;28;19931;-93
2023/01/29 06:53:32;;;;;;;;;;;3.40;99.90;;;;;;5131351;27;19950;-92
2023/01/29 06:55:57;;;;;;;;;;;3.40;99.90;;;;;;5135503;28;19963;-93
2023/01/29 06:58:23;;;;;;;;;;;3.40;99.90;;;;;;5122584;28;19931;-95
2023/01/29 07:00:48;;;;;;;;;;;3.40;99.90;;;;;;5124847;27;19954;-95
2023/01/29 07:03:14;;;;;;;;;;;3.40;99.90;;;;;;5126563;27;19924;-94
2023/01/29 07:05:40;;;;;;;;;;;3.40;99.90;;;;;;5130105;27;19924;-92
2023/01/29 07:08:06;;;;;;;;;;;3.40;99.90;;;;;;5138544;27;19931;-92
2023/01/29 07:10:31;;;;;;;;;;;3.30;99.90;;;;;;5126028;27;19923;-93
2023/01/29 07:13:00;;;;;;;;;;;3.30;99.90;;;;;;5122469;27;19987;-93
2023/01/29 07:15:26;;;;;;;;;;;3.30;99.90;;;;;;5126764;27;19990;-93
2023/01/29 07:17:59;;;;;;;;;;;3.40;99.90;;;;;;5128322;27;19941;-93
2023/01/29 07:20:25;;;;;;;;;;;3.30;99.90;;;;;;5147870;27;19919;-94
2023/01/29 07:22:51;;;;;;;;;;;3.30;99.90;;;;;;5124041;27;19919;-93
2023/01/29 07:25:16;;;;;;;;;;;3.40;99.90;;;;;;5150348;27;19946;-93
2023/01/29 07:27:42;;;;;;;;;;;3.30;99.90;;;;;;5117463;27;19927;-92
2023/01/29 07:30:08;;;;;;;;;;;3.30;99.90;;;;;;5132168;27;19980;-93
2023/01/29 07:32:33;;;;;;;;;;;3.30;99.90;;;;;;5119143;27;20375;-93
2023/01/29 07:34:59;;;;;;;;;;;3.30;99.90;;;;;;5126003;27;19931;-93
2023/01/29 07:37:24;;;;;;;;;;;3.30;99.90;;;;;;5117055;27;19988;-94
2023/01/29 07:39:50;;;;;;;;;;;3.30;99.90;;;;;;5140373;27;19923;-94
2023/01/29 07:42:16;;;;;;;;;;;3.30;99.90;;;;;;5152559;27;19927;-93
2023/01/29 07:44:41;;;;;;;;;;;3.20;99.90;;;;;;5134109;27;19923;-92
2023/01/29 07:47:07;;;;;;;;;;;3.20;99.90;;;;;;5105277;27;20360;-95
2023/01/29 07:49:32;;;;;;;;;;;3.30;99.90;;;;;;5125349;27;19929;-93
2023/01/29 07:51:58;;;;;;;;;;;3.20;99.90;;;;;;5141210;27;19924;-93
2023/01/29 07:54:23;;;;;;;;;;;3.30;99.90;;;;;;5100433;28;19969;-93
2023/01/29 07:56:49;;;;;;;;;;;3.30;99.90;;;;;;5129421;27;19952;-95
2023/01/29 07:59:15;;;;;;;;;;;3.30;99.90;;;;;;5142854;27;20399;-94
2023/01/29 08:01:40;;;;;;;;;;;3.50;99.90;;;;;;5112389;27;20006;-93
2023/01/29 08:04:06;;;;;;;;;;;3.40;99.90;;;;;;5131773;27;19928;-94
2023/01/29 08:06:31;;;;;;;;;;;3.40;99.90;;;;;;5120113;27;20358;-93
2023/01/29 08:08:58;;;;;;;;;;;3.40;99.90;;;;;;5130381;27;19923;-93
2023/01/29 08:11:24;;;;;;;;;;;3.40;99.90;;;;;;5120931;27;19934;-93
2023/01/29 08:13:49;;;;;;;;;;;3.40;99.90;;;;;;5119653;27;19924;-92
2023/01/29 08:16:15;;;;;;;;;;;3.40;99.90;;;;;;5141783;27;19938;-93
2023/01/29 08:18:46;;;;;;;;;;;3.50;99.90;;;;;;5116534;27;19931;-93
2023/01/29 08:21:12;;;;;;;;;;;3.50;99.90;;;;;;5130020;27;19938;-93
2023/01/29 08:23:37;;;;;;;;;;;3.80;99.90;;;;;;5139544;27;19924;-92
2023/01/29 08:26:03;;;;;;;;;;;3.60;99.90;;;;;;5124145;27;19923;-92
2023/01/29 08:28:29;;;;;;;;;;;3.50;99.90;;;;;;5128310;27;19924;-91
2023/01/29 08:30:54;;;;;;;;;;;3.50;99.90;;;;;;5120802;27;19945;-93
2023/01/29 08:33:20;;;;;;;;;;;3.60;99.90;;;;;;5152225;27;19932;-94
2023/01/29 08:35:49;;;;;;;;;;;3.60;99.90;;;;;;5109064;27;19952;-93
2023/01/29 08:38:15;;;;;;;;;;;3.60;99.90;;;;;;5118040;27;20022;-94
2023/01/29 08:40:41;;;;;;;;;;;3.60;99.90;;;;;;5122752;27;19931;-92
2023/01/29 08:43:07;;;;;;;;;;;3.60;99.90;;;;;;5126258;27;19924;-91
2023/01/29 08:45:34;;;;;;;;;;;3.60;99.90;;;;;;5134470;27;20015;-94
2023/01/29 08:48:00;;;;;;;;;;;3.60;99.90;;;;;;5135311;27;19986;-91
2023/01/29 08:50:25;;;;;;;;;;;3.60;99.90;;;;;;5157792;27;19942;-94
2023/01/29 08:52:56;;;;;;;;;;;3.70;99.90;;;;;;5120579;27;20337;-92
2023/01/29 08:55:21;;;;;;;;;;;3.70;99.90;;;;;;5129995;27;19923;-92
2023/01/29 08:57:47;;;;;;;;;;;3.70;99.90;;;;;;5132152;27;20290;-91
2023/01/29 09:00:13;;;;;;;;;;;3.70;99.90;;;;;;5141809;27;19982;-92
2023/01/29 09:02:39;;;;;;;;;;;3.70;99.90;;;;;;5123029;27;19965;-94
2023/01/29 09:05:05;;;;;;;;;;;3.80;99.90;;;;;;5150600;27;19927;-92
2023/01/29 09:07:31;;;;;;;;;;;3.70;99.90;;;;;;5140512;27;20259;-92
2023/01/29 09:09:57;;;;;;;;;;;3.80;99.90;;;;;;5126219;27;19931;-95
2023/01/29 09:12:22;;;;;;;;;;;3.70;99.90;;;;;;5106561;27;19931;-92
2023/01/29 09:14:48;;;;;;;;;;;3.80;99.90;;;;;;5121650;27;19931;-95
2023/01/29 09:17:14;;;;;;;;;;;3.80;99.90;;;;;;5124965;27;19923;-93
2023/01/29 09:19:42;;;;;;;;;;;3.80;99.90;;;;;;5126078;27;20006;-94
2023/01/29 09:22:08;;;;;;;;;;;5.90;99.90;;;;;;5150597;27;19966;-93
2023/01/29 09:24:34;;;;;;;;;;;3.80;99.90;;;;;;5123055;27;19930;-94
2023/01/29 09:27:00;;;;;;;;;;;3.90;99.90;;;;;;5137187;27;19923;-94
2023/01/29 09:29:25;;;;;;;;;;;3.90;99.90;;;;;;5123601;27;19928;-93
2023/01/29 09:31:51;;;;;;;;;;;4.00;99.90;;;;;;5125467;27;19934;-93
2023/01/29 09:34:17;;;;;;;;;;;4.00;99.90;;;;;;5123689;27;19927;-93
2023/01/29 09:36:42;;;;;;;;;;;4.00;99.90;;;;;;5123755;27;19945;-93
2023/01/29 09:39:08;;;;;;;;;;;4.10;99.90;;;;;;5141757;27;19966;-93
2023/01/29 09:41:52;;;;;;;;;;;4.10;99.90;;;;;;5139425;27;19924;-94
2023/01/29 09:44:21;;;;;;;;;;;4.10;99.90;;;;;;5131044;27;19923;-94
2023/01/29 09:46:47;;;;;;;;;;;4.20;99.90;;;;;;5134822;27;19923;-94
2023/01/29 09:49:17;;;;;;;;;;;4.20;99.90;;;;;;5120280;27;20012;-93
2023/01/29 09:51:46;;;;;;;;;;;4.20;99.90;;;;;;5138356;27;19923;-95
2023/01/29 09:54:17;;;;;;;;;;;4.20;99.90;;;;;;5121928;27;19992;-94
2023/01/29 09:56:43;;;;;;;;;;;4.30;99.90;;;;;;5142895;27;20003;-94
2023/01/29 09:59:11;;;;;;;;;;;4.30;99.90;;;;;;5147343;27;19923;-93
2023/01/29 10:01:39;;;;;;;;;;;4.30;99.90;;;;;;5121471;27;19923;-92
2023/01/29 10:04:11;;;;;;;;;;;4.30;99.90;;;;;;5147054;27;19965;-94
2023/01/29 10:07:01;;;;;;;;;;;4.30;99.90;;;;;;5131317;27;19931;-94
2023/01/29 10:09:45;;;;;;;;;;;4.30;99.90;;;;;;5126447;28;20002;-91
2023/01/29 10:12:19;;;;;;;;;;;4.30;99.90;;;;;;5140832;27;19930;-93
2023/01/29 10:14:57;;;;;;;;;;;4.30;99.90;;;;;;5143562;27;19919;-93
2023/01/29 10:17:35;;;;;;;;;;;4.30;99.90;;;;;;5151808;27;20367;-94
2023/01/29 10:20:01;;;;;;;;;;;4.30;99.90;;;;;;5131516;28;19924;-95
2023/01/29 10:22:29;;;;;;;;;;;4.40;99.90;;;;;;5124691;27;19930;-94
2023/01/29 10:24:56;;;;;;;;;;;4.30;99.90;;;;;;5139830;28;19987;-91
2023/01/29 10:27:25;;;;;;;;;;;4.40;99.90;;;;;;5127778;27;20019;-92
2023/01/29 10:29:53;;;;;;;;;;;4.30;99.90;;;;;;5125534;27;19950;-92
2023/01/29 10:32:19;;;;;;;;;;;4.30;99.90;;;;;;5120765;27;19923;-94
2023/01/29 10:35:00;;;;;;;;;;;4.20;99.90;;;;;;5146143;27;19924;-93
2023/01/29 10:37:38;;;;;;;;;;;4.20;99.90;;;;;;5139331;27;20408;-94
2023/01/29 10:40:18;;;;;;;;;;;4.20;99.90;;;;;;5124812;27;19970;-93
2023/01/29 10:42:50;;;;;;;;;;;4.20;99.90;;;;;;5143723;27;20260;-93
2023/01/29 10:45:22;;;;;;;;;;;4.20;99.90;;;;;;5126998;27;20373;-93
2023/01/29 10:48:20;;;;;;;;;;;4.20;99.90;;;;;;5143743;27;19923;-93
2023/01/29 10:51:10;;;;;;;;;;;4.20;99.90;;;;;;5084259;28;19928;-92
2023/01/29 10:53:36;;;;;;;;;;;4.20;99.90;;;;;;5113733;27;20014;-93
2023/01/29 10:56:19;;;;;;;;;;;4.20;99.90;;;;;;5144504;27;19927;-92
2023/01/29 10:58:58;;;;;;;;;;;4.20;99.90;;;;;;5137421;27;19923;-92
2023/01/29 11:01:25;;;;;;;;;;;4.20;99.90;;;;;;5147850;27;19934;-94
2023/01/29 11:03:55;;;;;;;;;;;4.40;99.90;;;;;;5132530;27;19923;-93
2023/01/29 11:06:29;;;;;;;;;;;4.30;99.90;;;;;;5143772;27;19923;-92
2023/01/29 11:09:04;;;;;;;;;;;4.30;99.90;;;;;;5143599;27;19939;-92
2023/01/29 11:11:47;;;;;;;;;;;4.30;99.90;;;;;;5126065;27;20014;-93
2023/01/29 11:14:15;;;;;;;;;;;4.30;99.90;;;;;;5132071;27;19923;-92
2023/01/29 11:16:42;;;;;;;;;;;4.30;99.90;;;;;;5118679;27;19924;-94
2023/01/29 11:19:07;;;;;;;;;;;4.40;99.90;;;;;;5123460;27;19931;-92
2023/01/29 11:21:48;;;;;;;;;;;4.40;99.90;;;;;;5126912;27;19923;-93
2023/01/29 11:24:17;;;;;;;;;;;4.40;99.90;;;;;;5124987;27;19970;-94
2023/01/29 11:26:44;;;;;;;;;;;4.50;99.90;;;;;;5142962;27;19931;-94
2023/01/29 11:29:31;;;;;;;;;;;4.40;99.90;;;;;;5125673;27;19979;-93
2023/01/29 11:31:57;;;;;;;;;;;4.40;99.90;;;;;;5115909;27;19923;-93
2023/01/29 11:34:28;;;;;;;;;;;4.40;99.90;;;;;;5107671;27;19939;-94
2023/01/29 11:36:59;;;;;;;;;;;2.90;99.90;;;;;;5126898;27;19943;-93
2023/01/29 11:39:26;;;;;;;;;;;4.40;99.90;;;;;;5132175;28;19924;-92
2023/01/29 11:41:51;;;;;;;;;;;4.40;99.90;;;;;;5138519;27;19923;-92
2023/01/29 11:44:25;;;;;;;;;;;4.40;99.90;;;;;;5149701;27;19923;-94
2023/01/29 11:46:50;;;;;;;;;;;4.40;99.90;;;;;;5152012;27;19946;-92
2023/01/29 11:49:25;;;;;;;;;;;4.40;99.90;;;;;;5111105;27;20347;-92
2023/01/29 11:51:53;;;;;;;;;;;4.40;99.90;;;;;;5125482;27;19924;-92
2023/01/29 11:54:19;;;;;;;;;;;4.40;99.90;;;;;;5134364;27;19924;-93
2023/01/29 11:56:45;;;;;;;;;;;4.40;99.90;;;;;;5126333;27;19923;-93
2023/01/29 11:59:20;;;;;;;;;;;4.40;99.90;;;;;;5154002;27;20352;-92
2023/01/29 12:01:46;;;;;;;;;;;4.40;99.90;;;;;;5145095;27;19962;-93
2023/01/29 12:04:22;;;;;;;;;;;4.40;99.90;;;;;;5123273;27;19924;-93
2023/01/29 12:06:51;;;;;;;;;;;4.40;99.90;;;;;;5140596;27;20310;-94
2023/01/29 12:09:18;;;;;;;;;;;4.50;99.90;;;;;;5147272;27;19955;-94
2023/01/29 12:11:44;;;;;;;;;;;4.50;99.90;;;;;;5129037;27;19949;-93
2023/01/29 12:14:25;;;;;;;;;;;4.50;99.90;;;;;;5107194;27;19923;-95
2023/01/29 12:17:06;;;;;;;;;;;4.60;99.90;;;;;;5122012;27;19923;-92
2023/01/29 12:19:39;;;;;;;;;;;4.60;99.90;;;;;;5137174;27;19944;-93
2023/01/29 12:22:09;;;;;;;;;;;4.70;99.90;;;;;;5141141;27;19971;-92
2023/01/29 12:24:40;;;;;;;;;;;4.70;99.90;;;;;;5127901;27;19964;-92
2023/01/29 12:27:15;;;;;;;;;;;4.60;99.90;;;;;;5133679;27;20261;-93
2023/01/29 12:29:47;;;;;;;;;;;4.70;99.90;;;;;;5123453;27;19945;-93
2023/01/29 12:32:28;;;;;;;;;;;4.70;99.90;;;;;;5121731;27;19962;-93
2023/01/29 12:35:02;;;;;;;;;;;4.70;99.90;;;;;;5110225;27;19923;-92
2023/01/29 12:37:38;;;;;;;;;;;4.70;99.90;;;;;;5139399;27;19962;-94
2023/01/29 12:40:26;;;;;;;;;;;4.70;99.90;;;;;;5137890;27;19923;-94
2023/01/29 12:42:54;;;;;;;;;;;4.70;99.90;;;;;;5118217;27;19935;-93
2023/01/29 12:45:22;;;;;;;;;;;4.70;99.90;;;;;;5134062;27;19923;-93
2023/01/29 12:47:50;;;;;;;;;;;4.70;99.90;;;;;;5121098;27;19935;-93
2023/01/29 12:50:31;;;;;;;;;;;4.70;99.90;;;;;;5122366;27;19977;-95
2023/01/29 12:53:19;;;;;;;;;;;4.70;99.90;;;;;;5137167;27;19972;-94
2023/01/29 12:55:47;;;;;;;;;;;4.70;99.90;;;;;;5121707;27;19931;-91
2023/01/29 12:58:14;;;;;;;;;;;4.60;99.90;;;;;;5107966;27;19946;-93
2023/01/29 13:00:44;;;;;;;;;;;4.60;99.90;;;;;;5142057;27;19969;-93
2023/01/29 13:03:15;;;;;;;;;;;4.60;99.90;;;;;;5133986;27;20327;-93
2023/01/29 13:05:50;;;;;;;;;;;4.60;99.90;;;;;;5149798;27;19974;-94
2023/01/29 13:08:22;;;;;;;;;;;4.60;99.90;;;;;;5133452;27;19927;-92
2023/01/29 13:10:49;;;;;;;;;;;4.60;99.90;;;;;;5129155;27;20204;-93
2023/01/29 13:13:26;;;;;;;;;;;4.60;99.90;;;;;;5113798;27;19924;-96
2023/01/29 13:15:52;;;;;;;;;;;4.50;99.90;;;;;;5112802;27;19935;-94
2023/01/29 13:18:24;;;;;;;;;;;4.60;99.90;;;;;;5111470;27;19924;-94
2023/01/29 13:20:50;;;;;;;;;;;4.70;99.90;;;;;;5129906;27;20051;-95
2023/01/29 13:23:20;;;;;;;;;;;4.60;99.90;;;;;;5119529;27;19928;-94
2023/01/29 13:25:49;;;;;;;;;;;4.60;99.90;;;;;;5132390;27;19974;-94
2023/01/29 13:28:18;;;;;;;;;;;4.50;99.90;;;;;;5136161;27;19923;-94
2023/01/29 13:30:44;;;;;;;;;;;4.50;99.90;;;;;;5119450;27;20022;-95
2023/01/29 13:33:19;;;;;;;;;;;4.60;99.90;;;;;;5112817;28;20028;-93
2023/01/29 13:35:45;;;;;;;;;;;4.60;99.90;;;;;;5135182;27;19923;-93
2023/01/29 13:38:32;;;;;;;;;;;4.70;99.90;;;;;;5102776;27;19931;-93
2023/01/29 13:41:03;;;;;;;;;;;4.60;99.90;;;;;;5119125;27;19953;-93
2023/01/29 13:43:33;;;;;;;;;;;4.60;99.90;;;;;;5115034;27;19994;-93
2023/01/29 13:46:05;;;;;;;;;;;4.60;99.90;;;;;;5114252;27;19964;-95
2023/01/29 13:48:31;;;;;;;;;;;4.60;99.90;;;;;;5120065;27;19984;-94
2023/01/29 13:51:01;;;;;;;;;;;4.60;99.90;;;;;;5115087;27;19930;-92
2023/01/29 13:53:28;;;;;;;;;;;4.60;99.90;;;;;;5118788;27;19923;-92
2023/01/29 13:55:53;;;;;;;;;;;4.50;99.90;;;;;;5109164;28;19927;-93
2023/01/29 13:58:31;;;;;;;;;;;4.50;99.90;;;;;;5110592;28;19996;-94
2023/01/29 14:01:00;;;;;;;;;;;4.50;99.90;;;;;;5116918;27;19947;-94
2023/01/29 14:03:25;;;;;;;;;;;4.50;99.90;;;;;;5110196;27;19928;-93
2023/01/29 14:06:00;;;;;;;;;;;4.50;99.90;;;;;;5122643;27;20347;-95
2023/01/29 14:08:43;;;;;;;;;;;4.40;99.90;;;;;;5125462;27;19966;-94
2023/01/29 14:11:29;;;;;;;;;;;4.40;99.90;;;;;;5114596;28;20057;-94
2023/01/29 14:13:54;;;;;;;;;;;4.40;99.90;;;;;;5113739;28;19935;-92
2023/01/29 14:16:20;;;;;;;;;;;4.40;99.90;;;;;;5114761;27;19927;-93
2023/01/29 14:18:48;;;;;;;;;;;4.40;99.90;;;;;;5115619;28;19953;-93
2023/01/29 14:21:31;;;;;;;;;;;4.40;99.90;;;;;;5114252;28;19927;-94
2023/01/29 14:24:16;;;;;;;;;;;4.40;99.90;;;;;;5130692;28;20449;-94
2023/01/29 14:26:44;;;;;;;;;;;4.40;99.90;;;;;;5133932;28;19994;-94
2023/01/29 14:29:23;;;;;;;;;;;4.40;99.90;;;;;;5135917;28;19923;-92
2023/01/29 14:31:59;;;;;;;;;;;4.30;99.90;;;;;;5122062;28;19931;-93
2023/01/29 14:34:43;;;;;;;;;;;4.30;99.90;;;;;;5129058;28;19973;-93
2023/01/29 14:37:14;;;;;;;;;;;4.30;99.90;;;;;;5127421;27;19927;-93
2023/01/29 14:39:48;;;;;;;;;;;4.30;99.90;;;;;;5128848;27;19928;-93
2023/01/29 14:42:21;;;;;;;;;;;4.30;99.90;;;;;;5130307;27;19924;-93
2023/01/29 14:44:52;;;;;;;;;;;4.30;99.90;;;;;;5115281;28;19923;-92
2023/01/29 14:47:33;;;;;;;;;;;4.30;99.90;;;;;;5111646;27;19938;-93
2023/01/29 14:50:00;;;;;;;;;;;4.30;99.90;;;;;;5127352;28;19963;-93
2023/01/29 14:52:37;;;;;;;;;;;4.30;99.90;;;;;;5113285;28;19932;-94
2023/01/29 14:55:05;;;;;;;;;;;4.30;99.90;;;;;;5117113;28;19924;-93
2023/01/29 14:57:31;;;;;;;;;;;4.30;99.90;;;;;;5112120;28;19935;-93
2023/01/29 14:59:59;;;;;;;;;;;4.20;99.90;;;;;;5112077;28;19927;-92
2023/01/29 15:02:25;;;;;;;;;;;4.30;99.90;;;;;;5131983;28;19939;-92
2023/01/29 15:04:53;;;;;;;;;;;4.30;99.90;;;;;;5113096;27;19975;-92
2023/01/29 15:07:26;;;;;;;;;;;4.20;99.90;;;;;;5115904;27;19993;-94
2023/01/29 15:09:54;;;;;;;;;;;4.20;99.90;;;;;;5118198;28;20465;-92
2023/01/29 15:12:28;;;;;;;;;;;4.20;99.90;;;;;;5114612;28;19939;-94